Shepherd's Bush, United Kingdom
Current Conditions -  °F | °C
As of 9:30 AM on Friday 28 Nov 2014 (Local Time) from EGWU Reporting Station
Haze Haze  
Wind Chill: 52°   Ceiling: 700
Heat Index: 52°   Visibility: 4mi
Dew Point: 50°   Wind: 12mph
Humidity: 94%   Direction: 100°E
Pressure: 29.59"   Gusts: NA
Location:  51.51°N, 0.24°W
Report Text: EGWU 280930Z 10010KT 6000 HZ BKN007 11/10 Q1002 GRN TEMPO BKN006 YLO1
Loading
Personal Weather Stations






























Interactive Weather Map New forecast layout! Learn more

10-Day Weather Forecast

Advertisements
Track Severe Weather on mobile